Timber Mountain, Nevada Weather observations

Data are for 10 minute period ending at time listed.
 Day   Time   Solar   Ave.   Ave.  Ave.  Vector  Max.   Baro.   Total    
  of    of     Rad.   Air    Rel.  Wind   Wind   Wind  Press.  Precip.   
Year   Day            Temp.  Hum.  Speed  Dir.   Gust                    
2014   (PST)  Kw/m2    F      %     mph   deg.    mph    mb.     in.     
-------------------------------------------------------------------------
 240    0:00   0.00   61.0    26    3.0   103     5.6   817.1    0.00 
 240    1:00   0.00   60.4    28    2.7   104     5.3   817.2    0.00 
 240    2:00   0.00   59.9    29    1.5   110     3.9   817.0    0.00 
 240    3:00   0.00   60.3    28    1.1   100     3.3   817.0    0.00 
 240    4:00   0.00   59.1    29    3.0   108     5.6   817.0    0.00 
 240    5:00   0.00   58.5    30    3.1   106     5.3   817.1    0.00 
 240    6:00   0.01   59.0    29    2.5   107     4.6   817.4    0.00 
 240    7:00   0.22   69.5    21    1.7   102     3.9   817.5    0.00 
 240    8:00   0.44   76.4    15    4.4   222     8.0   817.5    0.00 
 240    9:00   0.65   77.7    15    5.6   245     9.7   817.8    0.00 
 240   10:00   0.81   79.6    14    6.1   268    13.7   818.0    0.00 
 240   11:00   0.92   81.0    13    7.4   270    16.1   817.8    0.00 
 240   12:00   0.97   82.3    13    6.9   272    16.4   817.4    0.00 
 240   13:00   0.96   82.9    12    8.5   266    19.6   816.8    0.00 
 240   14:00   0.90   83.8    12    8.3   267    20.8   816.2    0.00 
 240   15:00   0.76   84.2    12    8.6   241    17.8   815.6    0.00 
 240   16:00   0.58   84.1    12    7.8   248    17.5   815.1    0.00 
 240   17:00   0.36   82.2    12    9.6   232    17.5   814.8    0.00 
 240   18:00   0.15   80.4    12    8.2   241    15.1   814.6    0.00 
 240   19:00   0.01   76.1    13    7.5   220    13.2   814.5    0.00 
 240   20:00   0.00   73.0    14    4.1   210    11.0   814.6    0.00 
 240   21:00   0.00   67.4    18    1.5   107     4.9   814.6    0.00 
 240   22:00   0.00   66.5    19    2.3    93     6.9   814.7    0.00 
 240   23:00   0.00   65.1    21    1.7    82     4.7   814.5    0.00 

Return to Timber Mountain graphs page.


Western Regional Climate Center,wrcc@dri.edu